sensor_id;sensor_type;location;lat;lon;timestamp;P1;P2;P0
75946;PMS5003;64628;50.104;14.614;2023-08-24T00:01:02;19;17;
75946;PMS5003;64628;50.104;14.614;2023-08-24T00:03:28;20;20;
75946;PMS5003;64628;50.104;14.614;2023-08-24T00:05:54;21;19;
75946;PMS5003;64628;50.104;14.614;2023-08-24T00:08:19;21;18;
75946;PMS5003;64628;50.104;14.614;2023-08-24T00:10:45;20;18;
75946;PMS5003;64628;50.104;14.614;2023-08-24T00:13:10;18;17;
75946;PMS5003;64628;50.104;14.614;2023-08-24T00:15:35;22;21;
75946;PMS5003;64628;50.104;14.614;2023-08-24T00:18:01;18;18;
75946;PMS5003;64628;50.104;14.614;2023-08-24T00:20:26;24;19;
75946;PMS5003;64628;50.104;14.614;2023-08-24T00:22:52;18;16;
75946;PMS5003;64628;50.104;14.614;2023-08-24T00:25:17;17;16;
75946;PMS5003;64628;50.104;14.614;2023-08-24T00:27:42;16;15;
75946;PMS5003;64628;50.104;14.614;2023-08-24T00:30:08;15;15;
75946;PMS5003;64628;50.104;14.614;2023-08-24T00:32:33;20;17;
75946;PMS5003;64628;50.104;14.614;2023-08-24T00:34:58;19;19;
75946;PMS5003;64628;50.104;14.614;2023-08-24T00:37:23;18;16;
75946;PMS5003;64628;50.104;14.614;2023-08-24T00:39:48;22;22;
75946;PMS5003;64628;50.104;14.614;2023-08-24T00:42:14;17;17;
75946;PMS5003;64628;50.104;14.614;2023-08-24T00:44:39;21;18;
75946;PMS5003;64628;50.104;14.614;2023-08-24T00:47:05;21;19;
75946;PMS5003;64628;50.104;14.614;2023-08-24T00:49:30;18;18;
75946;PMS5003;64628;50.104;14.614;2023-08-24T00:51:55;15;15;
75946;PMS5003;64628;50.104;14.614;2023-08-24T00:54:21;19;18;
75946;PMS5003;64628;50.104;14.614;2023-08-24T00:56:46;23;20;
75946;PMS5003;64628;50.104;14.614;2023-08-24T00:59:11;15;15;
75946;PMS5003;64628;50.104;14.614;2023-08-24T01:01:36;18;17;
75946;PMS5003;64628;50.104;14.614;2023-08-24T01:04:01;20;18;
75946;PMS5003;64628;50.104;14.614;2023-08-24T01:06:26;20;19;
75946;PMS5003;64628;50.104;14.614;2023-08-24T01:08:52;22;21;
75946;PMS5003;64628;50.104;14.614;2023-08-24T01:11:19;14;14;
75946;PMS5003;64628;50.104;14.614;2023-08-24T01:13:44;22;20;
75946;PMS5003;64628;50.104;14.614;2023-08-24T01:16:09;22;21;
75946;PMS5003;64628;50.104;14.614;2023-08-24T01:18:33;17;16;
75946;PMS5003;64628;50.104;14.614;2023-08-24T01:20:58;19;19;
75946;PMS5003;64628;50.104;14.614;2023-08-24T01:23:32;19;18;
75946;PMS5003;64628;50.104;14.614;2023-08-24T01:25:52;19;19;
75946;PMS5003;64628;50.104;14.614;2023-08-24T01:28:14;19;18;
75946;PMS5003;64628;50.104;14.614;2023-08-24T01:30:40;18;18;
75946;PMS5003;64628;50.104;14.614;2023-08-24T01:33:05;20;20;
75946;PMS5003;64628;50.104;14.614;2023-08-24T01:35:30;18;18;
75946;PMS5003;64628;50.104;14.614;2023-08-24T01:37:55;21;21;
75946;PMS5003;64628;50.104;14.614;2023-08-24T01:40:23;22;21;
75946;PMS5003;64628;50.104;14.614;2023-08-24T01:42:48;28;24;
75946;PMS5003;64628;50.104;14.614;2023-08-24T01:45:11;22;21;
75946;PMS5003;64628;50.104;14.614;2023-08-24T01:47:37;30;27;
75946;PMS5003;64628;50.104;14.614;2023-08-24T01:50:03;25;22;
75946;PMS5003;64628;50.104;14.614;2023-08-24T01:52:28;22;20;
75946;PMS5003;64628;50.104;14.614;2023-08-24T01:54:53;36;36;
75946;PMS5003;64628;50.104;14.614;2023-08-24T01:57:18;25;24;
75946;PMS5003;64628;50.104;14.614;2023-08-24T01:59:43;33;27;
75946;PMS5003;64628;50.104;14.614;2023-08-24T02:02:09;30;27;
75946;PMS5003;64628;50.104;14.614;2023-08-24T02:04:34;24;24;
75946;PMS5003;64628;50.104;14.614;2023-08-24T02:07:00;26;25;
75946;PMS5003;64628;50.104;14.614;2023-08-24T02:09:25;39;39;
75946;PMS5003;64628;50.104;14.614;2023-08-24T02:11:51;31;29;
75946;PMS5003;64628;50.104;14.614;2023-08-24T02:14:16;29;29;
75946;PMS5003;64628;50.104;14.614;2023-08-24T02:16:42;26;23;
75946;PMS5003;64628;50.104;14.614;2023-08-24T02:19:07;30;28;
75946;PMS5003;64628;50.104;14.614;2023-08-24T02:21:32;27;27;
75946;PMS5003;64628;50.104;14.614;2023-08-24T02:23:57;29;27;
75946;PMS5003;64628;50.104;14.614;2023-08-24T02:28:48;39;36;
75946;PMS5003;64628;50.104;14.614;2023-08-24T02:31:13;23;22;
75946;PMS5003;64628;50.104;14.614;2023-08-24T02:33:39;25;23;
75946;PMS5003;64628;50.104;14.614;2023-08-24T02:36:05;26;24;
75946;PMS5003;64628;50.104;14.614;2023-08-24T02:38:30;32;29;
75946;PMS5003;64628;50.104;14.614;2023-08-24T02:41:01;23;21;
75946;PMS5003;64628;50.104;14.614;2023-08-24T02:43:21;32;29;
75946;PMS5003;64628;50.104;14.614;2023-08-24T02:45:47;24;23;
75946;PMS5003;64628;50.104;14.614;2023-08-24T02:48:12;22;21;
75946;PMS5003;64628;50.104;14.614;2023-08-24T02:50:37;23;19;
75946;PMS5003;64628;50.104;14.614;2023-08-24T02:53:02;43;43;
75946;PMS5003;64628;50.104;14.614;2023-08-24T02:55:28;35;33;
75946;PMS5003;64628;50.104;14.614;2023-08-24T02:57:54;34;34;
75946;PMS5003;64628;50.104;14.614;2023-08-24T03:00:19;33;33;
75946;PMS5003;64628;50.104;14.614;2023-08-24T03:02:45;36;34;
75946;PMS5003;64628;50.104;14.614;2023-08-24T03:05:10;43;43;
75946;PMS5003;64628;50.104;14.614;2023-08-24T03:07:36;43;38;
75946;PMS5003;64628;50.104;14.614;2023-08-24T03:10:02;41;39;
75946;PMS5003;64628;50.104;14.614;2023-08-24T03:12:27;33;31;
75946;PMS5003;64628;50.104;14.614;2023-08-24T03:14:52;62;59;
75946;PMS5003;64628;50.104;14.614;2023-08-24T03:17:18;47;46;
75946;PMS5003;64628;50.104;14.614;2023-08-24T03:19:43;44;41;
75946;PMS5003;64628;50.104;14.614;2023-08-24T03:22:09;56;53;
75946;PMS5003;64628;50.104;14.614;2023-08-24T03:24:34;66;62;
75946;PMS5003;64628;50.104;14.614;2023-08-24T03:27:00;41;39;
75946;PMS5003;64628;50.104;14.614;2023-08-24T03:29:25;45;43;
75946;PMS5003;64628;50.104;14.614;2023-08-24T03:31:50;37;37;
75946;PMS5003;64628;50.104;14.614;2023-08-24T03:34:16;59;58;
75946;PMS5003;64628;50.104;14.614;2023-08-24T03:36:41;35;33;
75946;PMS5003;64628;50.104;14.614;2023-08-24T03:39:07;46;44;
75946;PMS5003;64628;50.104;14.614;2023-08-24T03:41:32;39;36;
75946;PMS5003;64628;50.104;14.614;2023-08-24T03:43:57;36;36;
75946;PMS5003;64628;50.104;14.614;2023-08-24T03:46:23;63;62;
75946;PMS5003;64628;50.104;14.614;2023-08-24T03:48:49;38;34;
75946;PMS5003;64628;50.104;14.614;2023-08-24T03:51:14;39;38;
75946;PMS5003;64628;50.104;14.614;2023-08-24T03:53:40;35;35;
75946;PMS5003;64628;50.104;14.614;2023-08-24T03:56:05;33;33;
75946;PMS5003;64628;50.104;14.614;2023-08-24T03:58:30;37;36;
75946;PMS5003;64628;50.104;14.614;2023-08-24T04:00:56;39;35;
75946;PMS5003;64628;50.104;14.614;2023-08-24T04:03:21;34;34;
75946;PMS5003;64628;50.104;14.614;2023-08-24T04:05:47;46;45;
75946;PMS5003;64628;50.104;14.614;2023-08-24T04:08:13;42;42;
75946;PMS5003;64628;50.104;14.614;2023-08-24T04:10:38;66;63;
75946;PMS5003;64628;50.104;14.614;2023-08-24T04:13:03;48;45;
75946;PMS5003;64628;50.104;14.614;2023-08-24T04:15:28;43;41;
75946;PMS5003;64628;50.104;14.614;2023-08-24T04:17:54;52;52;
75946;PMS5003;64628;50.104;14.614;2023-08-24T04:20:19;56;54;
75946;PMS5003;64628;50.104;14.614;2023-08-24T04:22:45;63;60;
75946;PMS5003;64628;50.104;14.614;2023-08-24T04:25:10;46;45;
75946;PMS5003;64628;50.104;14.614;2023-08-24T04:27:36;50;47;
75946;PMS5003;64628;50.104;14.614;2023-08-24T04:30:01;45;44;
75946;PMS5003;64628;50.104;14.614;2023-08-24T04:32:26;61;60;
75946;PMS5003;64628;50.104;14.614;2023-08-24T04:34:53;37;35;
75946;PMS5003;64628;50.104;14.614;2023-08-24T04:37:17;45;45;
75946;PMS5003;64628;50.104;14.614;2023-08-24T04:39:43;72;70;
75946;PMS5003;64628;50.104;14.614;2023-08-24T04:42:08;33;33;
75946;PMS5003;64628;50.104;14.614;2023-08-24T04:44:34;33;28;
75946;PMS5003;64628;50.104;14.614;2023-08-24T04:46:59;41;37;
75946;PMS5003;64628;50.104;14.614;2023-08-24T04:49:25;34;34;
75946;PMS5003;64628;50.104;14.614;2023-08-24T04:51:51;31;30;
75946;PMS5003;64628;50.104;14.614;2023-08-24T04:54:17;44;43;
75946;PMS5003;64628;50.104;14.614;2023-08-24T04:56:42;69;69;
75946;PMS5003;64628;50.104;14.614;2023-08-24T04:59:08;41;41;
75946;PMS5003;64628;50.104;14.614;2023-08-24T05:01:33;30;30;
75946;PMS5003;64628;50.104;14.614;2023-08-24T05:03:58;29;28;
75946;PMS5003;64628;50.104;14.614;2023-08-24T05:06:23;63;58;
75946;PMS5003;64628;50.104;14.614;2023-08-24T05:08:49;35;33;
75946;PMS5003;64628;50.104;14.614;2023-08-24T05:11:16;30;28;
75946;PMS5003;64628;50.104;14.614;2023-08-24T05:13:40;27;27;
75946;PMS5003;64628;50.104;14.614;2023-08-24T05:16:05;28;26;
75946;PMS5003;64628;50.104;14.614;2023-08-24T05:18:30;31;28;
75946;PMS5003;64628;50.104;14.614;2023-08-24T05:20:55;24;23;
75946;PMS5003;64628;50.104;14.614;2023-08-24T05:23:21;30;28;
75946;PMS5003;64628;50.104;14.614;2023-08-24T05:25:47;29;28;
75946;PMS5003;64628;50.104;14.614;2023-08-24T05:28:12;26;25;
75946;PMS5003;64628;50.104;14.614;2023-08-24T05:30:37;31;27;
75946;PMS5003;64628;50.104;14.614;2023-08-24T05:33:03;28;26;
75946;PMS5003;64628;50.104;14.614;2023-08-24T05:35:28;27;25;
75946;PMS5003;64628;50.104;14.614;2023-08-24T05:37:54;31;29;
75946;PMS5003;64628;50.104;14.614;2023-08-24T05:40:19;28;28;
75946;PMS5003;64628;50.104;14.614;2023-08-24T05:42:44;28;28;
75946;PMS5003;64628;50.104;14.614;2023-08-24T05:45:10;27;25;
75946;PMS5003;64628;50.104;14.614;2023-08-24T05:47:35;31;28;
75946;PMS5003;64628;50.104;14.614;2023-08-24T05:50:01;30;30;
75946;PMS5003;64628;50.104;14.614;2023-08-24T05:52:26;25;24;
75946;PMS5003;64628;50.104;14.614;2023-08-24T05:54:51;33;28;
75946;PMS5003;64628;50.104;14.614;2023-08-24T05:57:17;38;34;
75946;PMS5003;64628;50.104;14.614;2023-08-24T05:59:42;30;28;
75946;PMS5003;64628;50.104;14.614;2023-08-24T06:02:07;33;31;
75946;PMS5003;64628;50.104;14.614;2023-08-24T06:04:33;33;33;
75946;PMS5003;64628;50.104;14.614;2023-08-24T06:06:59;31;29;
75946;PMS5003;64628;50.104;14.614;2023-08-24T06:09:23;26;26;
75946;PMS5003;64628;50.104;14.614;2023-08-24T06:11:49;30;30;
75946;PMS5003;64628;50.104;14.614;2023-08-24T06:14:14;31;30;
75946;PMS5003;64628;50.104;14.614;2023-08-24T06:16:40;32;29;
75946;PMS5003;64628;50.104;14.614;2023-08-24T06:19:05;26;23;
75946;PMS5003;64628;50.104;14.614;2023-08-24T06:21:30;34;32;
75946;PMS5003;64628;50.104;14.614;2023-08-24T06:23:55;29;28;
75946;PMS5003;64628;50.104;14.614;2023-08-24T06:26:20;26;24;
75946;PMS5003;64628;50.104;14.614;2023-08-24T06:28:46;27;27;
75946;PMS5003;64628;50.104;14.614;2023-08-24T06:31:12;23;22;
75946;PMS5003;64628;50.104;14.614;2023-08-24T06:33:37;30;28;
75946;PMS5003;64628;50.104;14.614;2023-08-24T06:36:02;23;23;
75946;PMS5003;64628;50.104;14.614;2023-08-24T06:38:28;27;26;
75946;PMS5003;64628;50.104;14.614;2023-08-24T06:40:53;41;35;
75946;PMS5003;64628;50.104;14.614;2023-08-24T06:43:18;24;24;
75946;PMS5003;64628;50.104;14.614;2023-08-24T06:45:44;23;21;
75946;PMS5003;64628;50.104;14.614;2023-08-24T06:48:09;21;19;
75946;PMS5003;64628;50.104;14.614;2023-08-24T06:50:34;25;25;
75946;PMS5003;64628;50.104;14.614;2023-08-24T06:53:00;20;18;
75946;PMS5003;64628;50.104;14.614;2023-08-24T06:55:26;20;19;
75946;PMS5003;64628;50.104;14.614;2023-08-24T06:57:51;21;18;
75946;PMS5003;64628;50.104;14.614;2023-08-24T07:00:17;19;18;
75946;PMS5003;64628;50.104;14.614;2023-08-24T07:02:42;18;17;
75946;PMS5003;64628;50.104;14.614;2023-08-24T07:05:08;21;19;
75946;PMS5003;64628;50.104;14.614;2023-08-24T07:07:33;17;16;
75946;PMS5003;64628;50.104;14.614;2023-08-24T07:09:59;21;20;
75946;PMS5003;64628;50.104;14.614;2023-08-24T07:12:50;16;16;
75946;PMS5003;64628;50.104;14.614;2023-08-24T07:15:15;15;13;
75946;PMS5003;64628;50.104;14.614;2023-08-24T07:17:40;20;17;
75946;PMS5003;64628;50.104;14.614;2023-08-24T07:20:06;16;16;
75946;PMS5003;64628;50.104;14.614;2023-08-24T07:22:30;20;18;
75946;PMS5003;64628;50.104;14.614;2023-08-24T07:24:56;20;18;
75946;PMS5003;64628;50.104;14.614;2023-08-24T07:27:21;19;18;
75946;PMS5003;64628;50.104;14.614;2023-08-24T07:29:46;19;16;
75946;PMS5003;64628;50.104;14.614;2023-08-24T07:32:12;14;14;
75946;PMS5003;64628;50.104;14.614;2023-08-24T07:34:37;22;20;
75946;PMS5003;64628;50.104;14.614;2023-08-24T07:37:02;19;19;
75946;PMS5003;64628;50.104;14.614;2023-08-24T07:39:28;17;15;
75946;PMS5003;64628;50.104;14.614;2023-08-24T07:41:53;16;16;
75946;PMS5003;64628;50.104;14.614;2023-08-24T07:44:18;16;16;
75946;PMS5003;64628;50.104;14.614;2023-08-24T07:46:43;18;18;
75946;PMS5003;64628;50.104;14.614;2023-08-24T07:49:09;18;16;
75946;PMS5003;64628;50.104;14.614;2023-08-24T07:51:35;17;17;
75946;PMS5003;64628;50.104;14.614;2023-08-24T07:53:59;25;23;
75946;PMS5003;64628;50.104;14.614;2023-08-24T07:56:24;22;19;
75946;PMS5003;64628;50.104;14.614;2023-08-24T07:58:50;20;17;
75946;PMS5003;64628;50.104;14.614;2023-08-24T08:01:15;15;15;
75946;PMS5003;64628;50.104;14.614;2023-08-24T08:03:41;22;20;
75946;PMS5003;64628;50.104;14.614;2023-08-24T08:06:06;17;16;
75946;PMS5003;64628;50.104;14.614;2023-08-24T08:08:31;18;18;
75946;PMS5003;64628;50.104;14.614;2023-08-24T08:10:58;20;18;
75946;PMS5003;64628;50.104;14.614;2023-08-24T08:13:22;19;19;
75946;PMS5003;64628;50.104;14.614;2023-08-24T08:15:48;16;15;
75946;PMS5003;64628;50.104;14.614;2023-08-24T08:18:13;15;15;
75946;PMS5003;64628;50.104;14.614;2023-08-24T08:20:39;16;13;
75946;PMS5003;64628;50.104;14.614;2023-08-24T08:23:04;13;13;
75946;PMS5003;64628;50.104;14.614;2023-08-24T08:25:29;17;14;
75946;PMS5003;64628;50.104;14.614;2023-08-24T08:27:54;14;13;
75946;PMS5003;64628;50.104;14.614;2023-08-24T08:30:20;15;15;
75946;PMS5003;64628;50.104;14.614;2023-08-24T08:32:45;15;14;
75946;PMS5003;64628;50.104;14.614;2023-08-24T08:35:11;16;15;
75946;PMS5003;64628;50.104;14.614;2023-08-24T08:37:37;16;16;
75946;PMS5003;64628;50.104;14.614;2023-08-24T08:40:02;19;17;
75946;PMS5003;64628;50.104;14.614;2023-08-24T08:42:29;20;19;
75946;PMS5003;64628;50.104;14.614;2023-08-24T08:44:53;26;24;
75946;PMS5003;64628;50.104;14.614;2023-08-24T08:47:18;19;19;
75946;PMS5003;64628;50.104;14.614;2023-08-24T08:49:44;18;17;
75946;PMS5003;64628;50.104;14.614;2023-08-24T08:52:09;19;18;
75946;PMS5003;64628;50.104;14.614;2023-08-24T08:54:34;23;20;
75946;PMS5003;64628;50.104;14.614;2023-08-24T08:57:05;20;20;
75946;PMS5003;64628;50.104;14.614;2023-08-24T08:59:25;17;17;
75946;PMS5003;64628;50.104;14.614;2023-08-24T09:01:50;19;17;
75946;PMS5003;64628;50.104;14.614;2023-08-24T09:04:16;18;16;
75946;PMS5003;64628;50.104;14.614;2023-08-24T09:06:41;19;17;
75946;PMS5003;64628;50.104;14.614;2023-08-24T09:09:07;20;20;
75946;PMS5003;64628;50.104;14.614;2023-08-24T09:11:33;14;12;
75946;PMS5003;64628;50.104;14.614;2023-08-24T09:13:59;16;15;
75946;PMS5003;64628;50.104;14.614;2023-08-24T09:16:24;15;15;
75946;PMS5003;64628;50.104;14.614;2023-08-24T09:18:49;17;17;
75946;PMS5003;64628;50.104;14.614;2023-08-24T09:21:15;16;15;
75946;PMS5003;64628;50.104;14.614;2023-08-24T09:23:43;13;13;
75946;PMS5003;64628;50.104;14.614;2023-08-24T09:26:05;11;11;
75946;PMS5003;64628;50.104;14.614;2023-08-24T09:28:30;10;10;
75946;PMS5003;64628;50.104;14.614;2023-08-24T09:30:59;16;15;
75946;PMS5003;64628;50.104;14.614;2023-08-24T09:33:21;15;15;
75946;PMS5003;64628;50.104;14.614;2023-08-24T09:35:50;12;12;
75946;PMS5003;64628;50.104;14.614;2023-08-24T09:38:16;18;16;
75946;PMS5003;64628;50.104;14.614;2023-08-24T09:40:38;13;13;
75946;PMS5003;64628;50.104;14.614;2023-08-24T09:43:03;15;13;
75946;PMS5003;64628;50.104;14.614;2023-08-24T09:45:28;12;11;
75946;PMS5003;64628;50.104;14.614;2023-08-24T09:48:00;13;11;
75946;PMS5003;64628;50.104;14.614;2023-08-24T09:50:19;13;13;
75946;PMS5003;64628;50.104;14.614;2023-08-24T09:52:44;12;12;
75946;PMS5003;64628;50.104;14.614;2023-08-24T09:55:10;14;14;
75946;PMS5003;64628;50.104;14.614;2023-08-24T09:57:36;15;14;
75946;PMS5003;64628;50.104;14.614;2023-08-24T10:00:01;13;13;
75946;PMS5003;64628;50.104;14.614;2023-08-24T10:02:26;15;15;
75946;PMS5003;64628;50.104;14.614;2023-08-24T10:04:52;15;13;
75946;PMS5003;64628;50.104;14.614;2023-08-24T10:07:18;12;11;
75946;PMS5003;64628;50.104;14.614;2023-08-24T10:09:44;13;12;
75946;PMS5003;64628;50.104;14.614;2023-08-24T10:12:07;15;14;
75946;PMS5003;64628;50.104;14.614;2023-08-24T10:14:34;14;14;
75946;PMS5003;64628;50.104;14.614;2023-08-24T10:16:58;17;16;
75946;PMS5003;64628;50.104;14.614;2023-08-24T10:19:23;15;15;
75946;PMS5003;64628;50.104;14.614;2023-08-24T10:21:49;16;15;
75946;PMS5003;64628;50.104;14.614;2023-08-24T10:24:15;15;14;
75946;PMS5003;64628;50.104;14.614;2023-08-24T10:26:40;14;14;
75946;PMS5003;64628;50.104;14.614;2023-08-24T10:29:05;13;13;
75946;PMS5003;64628;50.104;14.614;2023-08-24T10:31:31;17;15;
75946;PMS5003;64628;50.104;14.614;2023-08-24T10:33:57;16;15;
75946;PMS5003;64628;50.104;14.614;2023-08-24T10:36:22;15;13;
75946;PMS5003;64628;50.104;14.614;2023-08-24T10:38:47;14;14;
75946;PMS5003;64628;50.104;14.614;2023-08-24T10:41:12;16;16;
75946;PMS5003;64628;50.104;14.614;2023-08-24T10:43:38;15;15;
75946;PMS5003;64628;50.104;14.614;2023-08-24T10:46:03;17;13;
75946;PMS5003;64628;50.104;14.614;2023-08-24T10:48:29;21;17;
75946;PMS5003;64628;50.104;14.614;2023-08-24T10:55:45;15;14;
75946;PMS5003;64628;50.104;14.614;2023-08-24T10:58:11;14;14;
75946;PMS5003;64628;50.104;14.614;2023-08-24T11:00:38;14;13;
75946;PMS5003;64628;50.104;14.614;2023-08-24T11:03:02;13;13;
75946;PMS5003;64628;50.104;14.614;2023-08-24T11:05:28;15;15;
75946;PMS5003;64628;50.104;14.614;2023-08-24T11:07:58;15;14;
75946;PMS5003;64628;50.104;14.614;2023-08-24T11:10:19;13;13;
75946;PMS5003;64628;50.104;14.614;2023-08-24T11:15:10;16;15;
75946;PMS5003;64628;50.104;14.614;2023-08-24T11:17:35;17;16;
75946;PMS5003;64628;50.104;14.614;2023-08-24T11:20:00;15;14;
75946;PMS5003;64628;50.104;14.614;2023-08-24T11:22:26;14;14;
75946;PMS5003;64628;50.104;14.614;2023-08-24T11:24:51;21;20;
75946;PMS5003;64628;50.104;14.614;2023-08-24T11:27:17;19;19;
75946;PMS5003;64628;50.104;14.614;2023-08-24T11:29:43;15;14;
75946;PMS5003;64628;50.104;14.614;2023-08-24T11:32:08;14;14;
75946;PMS5003;64628;50.104;14.614;2023-08-24T11:34:34;13;13;
75946;PMS5003;64628;50.104;14.614;2023-08-24T11:36:59;18;17;
75946;PMS5003;64628;50.104;14.614;2023-08-24T11:39:24;14;13;
75946;PMS5003;64628;50.104;14.614;2023-08-24T11:41:59;13;13;
75946;PMS5003;64628;50.104;14.614;2023-08-24T11:44:15;17;16;
75946;PMS5003;64628;50.104;14.614;2023-08-24T11:46:40;14;14;
75946;PMS5003;64628;50.104;14.614;2023-08-24T11:49:06;12;11;
75946;PMS5003;64628;50.104;14.614;2023-08-24T11:51:31;13;13;
75946;PMS5003;64628;50.104;14.614;2023-08-24T11:54:02;16;14;
75946;PMS5003;64628;50.104;14.614;2023-08-24T11:56:22;12;12;
75946;PMS5003;64628;50.104;14.614;2023-08-24T11:58:48;15;14;
75946;PMS5003;64628;50.104;14.614;2023-08-24T12:01:13;20;17;
75946;PMS5003;64628;50.104;14.614;2023-08-24T12:03:38;16;14;
75946;PMS5003;64628;50.104;14.614;2023-08-24T12:08:29;13;13;
75946;PMS5003;64628;50.104;14.614;2023-08-24T12:10:54;15;15;
75946;PMS5003;64628;50.104;14.614;2023-08-24T12:15:45;16;14;
75946;PMS5003;64628;50.104;14.614;2023-08-24T12:18:11;13;12;
75946;PMS5003;64628;50.104;14.614;2023-08-24T12:20:36;13;13;
75946;PMS5003;64628;50.104;14.614;2023-08-24T12:23:01;13;13;
75946;PMS5003;64628;50.104;14.614;2023-08-24T12:25:27;11;11;
75946;PMS5003;64628;50.104;14.614;2023-08-24T12:27:53;14;14;
75946;PMS5003;64628;50.104;14.614;2023-08-24T12:30:18;13;11;
75946;PMS5003;64628;50.104;14.614;2023-08-24T12:32:43;12;12;
75946;PMS5003;64628;50.104;14.614;2023-08-24T12:35:08;16;13;
75946;PMS5003;64628;50.104;14.614;2023-08-24T12:37:35;16;15;
75946;PMS5003;64628;50.104;14.614;2023-08-24T12:39:59;12;12;
75946;PMS5003;64628;50.104;14.614;2023-08-24T12:42:25;15;12;
75946;PMS5003;64628;50.104;14.614;2023-08-24T12:44:50;14;14;
75946;PMS5003;64628;50.104;14.614;2023-08-24T12:47:16;16;15;
75946;PMS5003;64628;50.104;14.614;2023-08-24T12:49:41;15;14;
75946;PMS5003;64628;50.104;14.614;2023-08-24T12:52:07;15;15;
75946;PMS5003;64628;50.104;14.614;2023-08-24T12:54:32;15;11;
75946;PMS5003;64628;50.104;14.614;2023-08-24T12:56:58;12;12;
75946;PMS5003;64628;50.104;14.614;2023-08-24T12:59:23;13;12;
75946;PMS5003;64628;50.104;14.614;2023-08-24T13:01:49;14;13;
75946;PMS5003;64628;50.104;14.614;2023-08-24T13:04:14;11;11;
75946;PMS5003;64628;50.104;14.614;2023-08-24T13:06:40;10;10;
75946;PMS5003;64628;50.104;14.614;2023-08-24T13:09:05;12;11;
75946;PMS5003;64628;50.104;14.614;2023-08-24T13:11:31;12;12;
75946;PMS5003;64628;50.104;14.614;2023-08-24T13:13:56;13;11;
75946;PMS5003;64628;50.104;14.614;2023-08-24T13:16:21;17;16;
75946;PMS5003;64628;50.104;14.614;2023-08-24T13:18:47;15;15;
75946;PMS5003;64628;50.104;14.614;2023-08-24T13:21:12;15;12;
75946;PMS5003;64628;50.104;14.614;2023-08-24T13:23:38;14;13;
75946;PMS5003;64628;50.104;14.614;2023-08-24T13:26:04;13;11;
75946;PMS5003;64628;50.104;14.614;2023-08-24T13:28:29;14;13;
75946;PMS5003;64628;50.104;14.614;2023-08-24T13:30:55;17;16;
75946;PMS5003;64628;50.104;14.614;2023-08-24T13:33:20;14;13;
75946;PMS5003;64628;50.104;14.614;2023-08-24T13:35:45;17;17;
75946;PMS5003;64628;50.104;14.614;2023-08-24T13:38:11;18;17;
75946;PMS5003;64628;50.104;14.614;2023-08-24T13:40:37;19;18;
75946;PMS5003;64628;50.104;14.614;2023-08-24T13:43:02;17;16;
75946;PMS5003;64628;50.104;14.614;2023-08-24T13:45:27;15;13;
75946;PMS5003;64628;50.104;14.614;2023-08-24T13:47:53;15;14;
75946;PMS5003;64628;50.104;14.614;2023-08-24T13:50:18;17;16;
75946;PMS5003;64628;50.104;14.614;2023-08-24T13:52:43;20;16;
75946;PMS5003;64628;50.104;14.614;2023-08-24T13:55:09;15;15;
75946;PMS5003;64628;50.104;14.614;2023-08-24T13:57:35;16;15;
75946;PMS5003;64628;50.104;14.614;2023-08-24T14:00:00;14;14;
75946;PMS5003;64628;50.104;14.614;2023-08-24T14:02:26;18;18;
75946;PMS5003;64628;50.104;14.614;2023-08-24T14:04:51;19;19;
75946;PMS5003;64628;50.104;14.614;2023-08-24T14:07:16;17;16;
75946;PMS5003;64628;50.104;14.614;2023-08-24T14:09:42;18;18;
75946;PMS5003;64628;50.104;14.614;2023-08-24T14:12:07;17;16;
75946;PMS5003;64628;50.104;14.614;2023-08-24T14:14:33;18;16;
75946;PMS5003;64628;50.104;14.614;2023-08-24T14:16:58;17;14;
75946;PMS5003;64628;50.104;14.614;2023-08-24T14:19:24;15;15;
75946;PMS5003;64628;50.104;14.614;2023-08-24T14:21:49;17;15;
75946;PMS5003;64628;50.104;14.614;2023-08-24T14:24:15;16;16;
75946;PMS5003;64628;50.104;14.614;2023-08-24T14:26:40;16;14;
75946;PMS5003;64628;50.104;14.614;2023-08-24T14:29:05;17;16;
75946;PMS5003;64628;50.104;14.614;2023-08-24T14:31:31;15;15;
75946;PMS5003;64628;50.104;14.614;2023-08-24T14:33:57;16;15;
75946;PMS5003;64628;50.104;14.614;2023-08-24T14:36:22;19;19;
75946;PMS5003;64628;50.104;14.614;2023-08-24T14:38:48;15;15;
75946;PMS5003;64628;50.104;14.614;2023-08-24T14:41:13;15;15;
75946;PMS5003;64628;50.104;14.614;2023-08-24T14:43:38;18;16;
75946;PMS5003;64628;50.104;14.614;2023-08-24T14:46:04;14;14;
75946;PMS5003;64628;50.104;14.614;2023-08-24T14:48:29;14;13;
75946;PMS5003;64628;50.104;14.614;2023-08-24T14:50:55;12;12;
75946;PMS5003;64628;50.104;14.614;2023-08-24T14:53:20;14;13;
75946;PMS5003;64628;50.104;14.614;2023-08-24T14:55:46;15;15;
75946;PMS5003;64628;50.104;14.614;2023-08-24T14:58:11;14;14;
75946;PMS5003;64628;50.104;14.614;2023-08-24T15:00:36;14;13;
75946;PMS5003;64628;50.104;14.614;2023-08-24T15:03:02;17;17;
75946;PMS5003;64628;50.104;14.614;2023-08-24T15:05:27;13;13;
75946;PMS5003;64628;50.104;14.614;2023-08-24T15:07:53;16;15;
75946;PMS5003;64628;50.104;14.614;2023-08-24T15:10:18;17;16;
75946;PMS5003;64628;50.104;14.614;2023-08-24T15:12:44;17;17;
75946;PMS5003;64628;50.104;14.614;2023-08-24T15:15:10;15;14;
75946;PMS5003;64628;50.104;14.614;2023-08-24T15:17:35;15;12;
75946;PMS5003;64628;50.104;14.614;2023-08-24T15:20:01;14;14;
75946;PMS5003;64628;50.104;14.614;2023-08-24T15:22:26;14;13;
75946;PMS5003;64628;50.104;14.614;2023-08-24T15:24:52;15;15;
75946;PMS5003;64628;50.104;14.614;2023-08-24T15:27:17;13;12;
75946;PMS5003;64628;50.104;14.614;2023-08-24T15:29:43;15;15;
75946;PMS5003;64628;50.104;14.614;2023-08-24T15:32:08;15;13;
75946;PMS5003;64628;50.104;14.614;2023-08-24T15:34:34;16;15;
75946;PMS5003;64628;50.104;14.614;2023-08-24T15:36:59;17;15;
75946;PMS5003;64628;50.104;14.614;2023-08-24T15:39:25;15;14;
75946;PMS5003;64628;50.104;14.614;2023-08-24T15:41:50;11;10;
75946;PMS5003;64628;50.104;14.614;2023-08-24T15:44:15;12;12;
75946;PMS5003;64628;50.104;14.614;2023-08-24T15:46:41;13;13;
75946;PMS5003;64628;50.104;14.614;2023-08-24T15:49:06;16;15;
75946;PMS5003;64628;50.104;14.614;2023-08-24T15:51:32;13;13;
75946;PMS5003;64628;50.104;14.614;2023-08-24T15:53:57;14;14;
75946;PMS5003;64628;50.104;14.614;2023-08-24T15:56:22;19;16;
75946;PMS5003;64628;50.104;14.614;2023-08-24T15:58:47;15;15;
75946;PMS5003;64628;50.104;14.614;2023-08-24T16:01:13;17;15;
75946;PMS5003;64628;50.104;14.614;2023-08-24T16:03:38;16;13;